Tiempo atmosférico en la estación meteorológica de Quintanar De La Orden, Toledo (691 m.)



Fecha
DESCASC
Temp. máxima en grados centígrados (hora)
DESCASC
Temp. mínima en grados centígrados (hora)
DESCASC
Temp. media en grados centígrados
DESCASC
Racha de viento máxima en m/sg (hora)
DESCASC
Velocidad máxima media en intervalos de 10 minutos(hora)
DESCASC
Precipitaciones diarias en mm
DESCASC
Precipitaciones de 00:00 a 06:00 en mm
DESCASC
Precipitaciones de 06:00 a 12:00 en mm
DESCASC
Precipitaciones de 12:00 a 18:00 en mm
DESCASC
Precipitaciones de 18:00 a 24:00 en mm
DESCASC
20-09-2020 23.1 (17:10) 15.3 (08:20) 19.2 6.67 (16:40) 3.33 (18:00) 0 0 0 0 0
19-09-2020 23.2 (17:00) 14.9 (07:00) 19.1 10.28 (15:00) 5 (11:30) 0.2 0.2 0 0 0
17-09-2020 27.7 (17:00) 18.8 (00:00) 23.3 13.33 (20:40) 4.72 (01:40) 1.2 0.8 0.1 0 0.3
16-09-2020 33 (15:10) 17.5 (08:00) 25.3 7.22 (23:40) 2.22 (16:50) 0 0 0 0 0
15-09-2020 30.4 (16:50) 18 (00:00) 24.2 7.22 (01:30) 2.78 (01:30) 0.9 0.9 0 0 0
14-09-2020 33.1 (15:40) 18.8 (00:00) 25.9 9.17 (10:20) 3.06 (11:20) 0 0 0 0 0
13-09-2020 32.2 (15:10) 19.5 (00:00) 25.9 8.89 (02:50) 3.33 (14:20) 0 0 0 0 0
12-09-2020 33.9 (15:50) 19.3 (08:00) 26.6 7.78 (09:40) 2.78 (10:40) 0 0 0 0 0
11-09-2020 32.9 (17:20) 16.1 (00:00) 24.5 5.28 (17:00) 2.22 (15:50) 0 0 0 0 0
10-09-2020 30.1 (17:10) 13.6 (00:00) 21.9 5.56 (14:30) 2.22 (19:00) 0 0 0 0 0
09-09-2020 28.9 (17:20) 15.8 (07:20) 22.3 7.5 (00:40) 2.22 (00:40) 0 0 0 0 0
08-09-2020 28 (17:00) 15.1 (00:00) 21.6 8.61 (14:20) 2.5 (12:30) 0 0 0 0 0
07-09-2020 27.2 (16:50) 15.5 (08:00) 21.4 9.17 (18:10) 3.61 (15:50) 0 0 0 0 0
06-09-2020 34 (15:50) 18.8 (00:00) 26.4 11.94 (00:40) 3.06 (00:20) 0 0 0 0 0
05-09-2020 34.3 (16:40) 17.4 (00:00) 25.8 8.06 (23:59) 2.78 (23:59) 0 0 0 0 0
04-09-2020 32.7 (16:30) 17.8 (00:00) 25.3 8.89 (01:50) 2.78 (15:30) 0 0 0 0 0
03-09-2020 32.7 (16:10) 17.4 (00:00) 25.1 7.22 (03:10) 2.22 (06:50) 0 0 0 0 0
02-09-2020 30 (16:10) 15.9 (00:00) 22.9 8.33 (09:50) 1.67 (09:40) 0 0 0 0 0
01-09-2020 27.1 (15:40) 13.1 (00:00) 20.1 4.44 (11:20) 1.67 (11:10) 0 0 0 0 0
31-08-2020 26.8 (16:20) 10.7 (00:00) 18.7 5 (17:10) 1.94 (11:40) 0 0 0 0 0
30-08-2020 24.2 (17:10) 10 (00:00) 17.1 6.67 (18:30) 2.22 (16:10) 0 0 0 0 0
29-08-2020 24.5 (15:50) 14.8 (00:00) 19.7 12.22 (11:40) 3.89 (17:20) 0 0 0 0 0
28-08-2020 33.9 (16:10) 18.3 (00:00) 26.1 10.28 (18:50) 4.72 (18:30) 0 0 0 0 0
27-08-2020 37.4 (17:20) 20.5 (00:00) 29 5.56 (15:40) 1.67 (12:40) 0 0 0 0 0
26-08-2020 37.9 (17:20) 19.9 (00:00) 28.9 7.22 (16:40) 1.94 (16:30) 0 0 0 0 0
25-08-2020 37.4 (17:40) 20.6 (00:00) 29 6.39 (05:00) 2.78 (17:10) 0 0 0 0 0
24-08-2020 35 (17:30) 21.6 (07:50) 28.3 8.33 (16:50) 2.5 (17:40) 0 0 0 0 0
23-08-2020 34.4 (17:20) 18.1 (00:00) 26.3 6.39 (17:30) 2.5 (14:40) 0 0 0 0 0
22-08-2020 33.9 (17:50) 20.2 (00:00) 27.1 6.39 (13:50) 2.22 (13:50) 0 0 0 0 0

Gráficas

Temp. máximas Temp. mínimas Temp. medias Precipitaciones Rachas de viento máximas Velocidades máximas media en intervalos de 10 minutos

Datos horarios

Fecha y hora oficial Temperatura (ºC) Velocidad del viento (km/h) Dirección del viento Racha (km/h) Dirección de racha Precipitación (mm) Presión (hPa) Tendencia (hPa) Humedad (%)
2020-09-20 23:00:00 18.9 0 Calma 6 Norte 0 932.8 0.1 66
2020-09-20 22:00:00 19.7 3 Norte 14 Norte 0 932.8 0.1 61
2020-09-20 21:00:00 20.7 7 Noroeste 14 Noroeste 0 932.7 0 51
2020-09-20 20:00:00 21.5 5 Noroeste 14 Noroeste 0 932.7 0 47
2020-09-20 19:00:00 22.1 9 Noroeste 20 Norte 0 932.7 0 44
2020-09-20 18:00:00 22.2 12 Noroeste 23 Noroeste 0 932.7 0 48
2020-09-20 17:00:00 22.5 4 Noroeste 24 Noroeste 0 932.7 0 48
2020-09-20 16:00:00 22.6 5 Noroeste 23 Noroeste 0 932.7 0 47
2020-09-20 15:00:00 21.1 5 Oeste 21 Oeste 0 932.7 -0.1 50
2020-09-20 14:00:00 21 5 Oeste 23 Sudoeste 0 932.7 -0.1 --
2020-09-20 13:00:00 20.6 5 Oeste 23 Oeste 0 932.7 -0.1 54
2020-09-20 12:00:00 19.5 8 Sudoeste 19 Oeste 0 932.8 -- 63
2020-09-20 11:00:00 17.7 5 Sudoeste 18 Sudoeste 0 932.8 -- 73
2020-09-20 10:00:00 16.4 4 Sudoeste 10 Oeste 0 932.8 -- 91
2020-09-20 09:00:00 15.5 0 Calma 6 Sudoeste 0 932.7 -- 94
2020-09-20 08:00:00 15.5 0 Calma 5 Sudoeste 0 932.8 -- 94
2020-09-20 07:00:00 15.5 0 Calma 9 Oeste 0 932.8 -- 94
2020-09-20 06:00:00 15.6 3 Sudoeste 10 Sudoeste 0 932.8 -- 92
2020-09-20 05:00:00 16.1 7 Sudoeste 10 Sudoeste 0 932.8 -- 91
2020-09-20 04:00:00 16.7 5 Sudoeste 9 Sudoeste 0 932.8 -- 87
2020-09-20 03:00:00 17.1 3 Sudoeste 7 Sudoeste 0 932.8 -- 84
2020-09-20 02:00:00 17.1 4 Sudoeste 7 Sudoeste 0 932.7 -- 79
2020-09-20 01:00:00 17.4 4 Sudoeste 8 Sudoeste 0 932.6 -- 70
2020-09-20 00:00:00 17.6 0 Calma 5 Sur 0 932.7 -- 67
2020-09-19 23:00:00 18.9 2 Oeste 10 Noroeste 0 932.6 -- 62
2020-09-19 22:00:00 19.5 5 Noroeste 10 Noroeste 0 932.7 -- 56
2020-09-19 21:00:00 20.1 4 Noroeste 13 Noroeste 0 932.7 -- 51
2020-09-19 20:00:00 20.8 5 Norte 23 Noroeste 0 932.7 -- 45
2020-09-19 19:00:00 21.3 10 Noroeste 24 Noroeste 0 932.7 -- 44
2020-09-19 18:00:00 22 3 Oeste 27 Norte 0 932.7 -- --
2020-09-19 17:00:00 23.1 4 Noroeste 31 Oeste 0 932.6 -- 40
2020-09-19 16:00:00 22.1 5 Noroeste 35 Sudoeste 0 932.7 -- 43
2020-09-19 15:00:00 21.6 10 Oeste 37 Noroeste 0 932.7 -- 47
2020-09-19 14:00:00 20.4 9 Oeste 29 Sudoeste 0 932.7 -- 60
2020-09-19 13:00:00 18.6 14 Sudoeste 30 Oeste 0 932.8 -- --
2020-09-19 12:00:00 18.2 18 Sudoeste 30 Sudoeste 0 932.7 -- 71
2020-09-19 11:00:00 17.1 12 Sudoeste 24 Oeste 0 932.7 -- 80
2020-09-19 10:00:00 16.6 9 Sudoeste 22 Sudoeste 0 932.6 -- 86
2020-09-19 09:00:00 15.5 5 Sudoeste 16 Sudoeste 0 932.8 -- 92
2020-09-19 08:00:00 15.5 4 Sur 15 Sudoeste 0 932.7 -- 91
2020-09-19 07:00:00 15 10 Sudoeste 21 Sudoeste 0 932.8 -- 91
2020-09-19 06:00:00 15.4 10 Sudoeste 19 Oeste 0 932.8 -- 92
2020-09-19 05:00:00 15.6 8 Sudoeste 26 Sur 0 932.8 -- 92
2020-09-19 04:00:00 16.5 9 Sudoeste 19 Sudoeste 0 932.8 -- 86
2020-09-19 03:00:00 16.9 5 Sur 22 Sur 0 932.8 -- 87
2020-09-19 02:00:00 17 9 Sudoeste 21 Sur 0.1 932.8 -- 89
2020-09-19 01:00:00 16.7 9 Sur 18 Sudeste 0.1 932.8 -- 92
2020-09-19 00:00:00 16.5 8 Sur 24 Sur 0.1 932.8 -- 94
2020-09-18 23:00:00 16.9 6 Sur 18 Sur 0.1 932.8 -- 89
2020-09-18 22:00:00 17 5 Sudeste 16 Sudeste 0.1 932.7 -- 89
2020-09-18 21:00:00 17.7 5 Sudeste 13 Sur 0.2 932.7 -- --
2020-09-18 20:00:00 18.7 2 Sur 11 Oeste 0.2 932.7 -- 79
2020-09-18 19:00:00 18.2 6 Sudoeste 14 Sudoeste 0.3 932.6 -- 82
2020-09-18 18:00:00 18.5 2 Sudoeste 11 Sudoeste 0.7 932.8 -- --
2020-09-18 17:00:00 20.7 0 Calma 13 Sur 0.2 932.8 -- 62
2020-09-18 16:00:00 20.5 5 Sudeste 14 Sur 0.3 932.7 -- 66
2020-09-18 15:00:00 19 0 Calma 13 Sur 0.5 932.8 -- 78
2020-09-18 14:00:00 18.1 4 Sudeste 14 Sur 2.3 932.8 -- 93
2020-09-18 13:00:00 18.5 6 Sur 17 Sudoeste 0.1 932.8 -- 87
2020-09-18 12:00:00 19.9 5 Sudeste 18 Sur 0 932.8 -- 72
2020-09-18 11:00:00 19.6 5 Sur 19 Sudeste 0 932.8 -- 69
2020-09-18 10:00:00 18.9 9 Sur 21 Sur 0 932.8 -- 69
2020-09-18 09:00:00 18.3 4 Sudeste 19 Sur 0 932.7 -- 68
2020-09-18 08:00:00 18.9 8 Sur 20 Sur 0 932.8 -- 65
2020-09-18 07:00:00 18.9 5 Sur 22 Sudoeste 0 932.8 -- 65
2020-09-18 06:00:00 19.5 5 Sur 25 Sur 0 932.7 -- 63
2020-09-18 05:00:00 19.5 8 Sur 22 Sur 0 932.8 -- 64
2020-09-18 04:00:00 20 8 Sur 24 Sur 0 932.7 -- 64
2020-09-18 03:00:00 20.5 9 Sur 23 Sur 0 932.8 -- --
2020-09-18 02:00:00 21 9 Sur 26 Sur 0 932.7 -- --
2020-09-18 01:00:00 20.5 8 Sur 21 Sur 0 932.8 -- 82
2020-09-18 00:00:00 20.4 6 Sudeste 24 Sudeste 0 932.7 -- 84
2020-09-17 23:00:00 20.5 7 Sudeste 17 Sur 0.1 932.7 -- 84
2020-09-17 22:00:00 20.3 4 Sudeste 11 Sur 0.2 932.7 -- 84
2020-09-17 21:00:00 20.7 7 Sur 48 Sur 0 932.6 -- 81
2020-09-17 20:00:00 26.3 4 Sur 20 Sudoeste 0 932.7 -- --
2020-09-17 19:00:00 26.4 10 Sudoeste 27 Oeste 0 932.7 -- 43
2020-09-17 18:00:00 27.4 9 Sudoeste 27 Sudoeste 0 932.8 -- 43
2020-09-17 17:00:00 27.1 9 Sudoeste 33 Sudoeste 0 932.7 -- 43
2020-09-17 16:00:00 26.5 15 Sudoeste 30 Sudoeste 0 932.7 -- 45
2020-09-17 15:00:00 24.9 9 Sudoeste 27 Sudoeste 0 932.7 -- 52
2020-09-17 14:00:00 25 10 Sudoeste 25 Sudoeste 0 932.7 -- 53
2020-09-17 13:00:00 24.1 9 Sudoeste 21 Sur 0 932.7 -- 56
2020-09-17 12:00:00 23.6 10 Sur 24 Sudoeste 0 932.8 -- 60
2020-09-17 11:00:00 22.5 9 Sur 23 Sur 0 932.7 -- 65
2020-09-17 10:00:00 20.9 7 Sudeste 26 Sur 0 932.8 -- 70
2020-09-17 09:00:00 19.6 5 Sudeste 16 Sur 0 932.8 -- 75
2020-09-17 08:00:00 19.7 0 Calma 14 Sur 0 932.8 -- 77
2020-09-17 07:00:00 19.5 0 Calma 13 Sur 0.1 932.8 -- --
2020-09-17 06:00:00 19.5 0 Calma 10 Este 0.2 932.8 -- --
2020-09-17 05:00:00 19.3 0 Calma 10 Sudeste 0.2 932.8 -- 86
2020-09-17 04:00:00 18.8 3 Sur 11 Sur 0.2 932.8 -- 89
2020-09-17 03:00:00 19.3 5 Sudoeste 28 Oeste 0.2 932.8 -- 86
2020-09-17 02:00:00 21.4 11 Oeste 32 Sudoeste 0 932.8 -- --
2020-09-17 01:00:00 24.3 9 Sur 27 Sudeste 0 932.8 -- 52
2020-09-17 00:00:00 25.3 8 Sudeste 26 Sur 0 932.8 -- 49
2020-09-16 23:00:00 26.3 8 Sudeste 24 Sudeste 0 932.8 -- 41
2020-09-16 22:00:00 26.9 6 Sudeste 19 Sudeste 0 932.7 -- 37
2020-09-16 21:00:00 27.8 7 Sudeste 24 Sur 0 932.7 -- 34
2020-09-16 20:00:00 29.4 7 Sudeste 20 Sudeste 0 932.8 -- 33
2020-09-16 19:00:00 30.1 7 Sur 21 Sur 0 932.8 -- 34
2020-09-16 18:00:00 31.3 6 Sur 19 Sur 0 932.8 -- 34
2020-09-16 17:00:00 32.5 6 Sur 18 Sudoeste 0 932.8 -- 34
2020-09-16 16:00:00 32.2 6 Sur 17 Sur 0 932.8 -- 34
2020-09-16 15:00:00 31.1 4 Sudoeste 19 Oeste 0 932.7 -- 37
2020-09-16 14:00:00 29.7 4 Sudoeste 16 Sur 0 932.8 -- --
2020-09-16 13:00:00 28.4 3 Sur 14 Sur 0 932.7 -- 46
2020-09-16 12:00:00 25.7 6 Sur 16 Sur 0 932.7 -- --
2020-09-16 11:00:00 23 5 Sudeste 16 Sur 0 932.8 -- 63
2020-09-16 10:00:00 20.5 5 Sudeste 15 Sur 0 932.8 -- --
2020-09-16 09:00:00 19 2 Sudeste 10 Sur 0 932.8 -- --
2020-09-16 08:00:00 17.5 2 Oeste 10 Sur 0 932.8 -- 70
2020-09-16 07:00:00 18.7 0 Calma 5 Sur 0 932.8 -- 67
2020-09-16 06:00:00 19.7 2 Este 8 Este 0 932.8 -- 61
2020-09-16 05:00:00 20.3 0 Calma 7 Oeste 0 932.8 -- 60
2020-09-16 04:00:00 21.1 3 Sur 18 Sur 0 932.8 -- 57
2020-09-16 03:00:00 21.9 4 Sudeste 16 Sur 0 932.8 -- 56
2020-09-16 02:00:00 22.8 3 Sudeste 19 Sur 0 932.7 -- 54
2020-09-16 01:00:00 22.8 2 Sur 7 Sudeste 0 932.7 -- 49
2020-09-16 00:00:00 22.5 2 Sudeste 10 Sudeste 0 932.8 -- 48
2020-09-15 23:00:00 23.6 0 Calma 3 Nordeste 0 932.7 -- 46
2020-09-15 22:00:00 24.8 0 Calma 3 Este 0 932.8 -- 45
2020-09-15 21:00:00 26.1 0 Calma 3 Noroeste 0 932.7 -- 42
2020-09-15 20:00:00 27.5 0 Calma 15 Oeste 0 932.8 -- 39
2020-09-15 19:00:00 28.7 3 Noroeste 19 Oeste 0 932.8 -- --
2020-09-15 18:00:00 29 5 Oeste 21 Oeste 0 932.8 -- --
2020-09-15 17:00:00 30.1 5 Sudoeste 19 Sudoeste 0 932.8 -- 40
2020-09-15 16:00:00 29 8 Sudoeste 17 Sudoeste 0 932.8 -- --
2020-09-15 15:00:00 29.5 3 Sur 15 Oeste 0 932.7 -- --
2020-09-15 14:00:00 27.4 2 Sudoeste 13 Sudoeste 0 932.7 -- 51
2020-09-15 13:00:00 25.5 3 Norte 12 Noroeste 0 932.7 -- 58
2020-09-15 12:00:00 23.6 2 Sur 9 Sudoeste 0 932.7 -- 65
2020-09-15 11:00:00 21.6 4 Sur 14 Sur 0 932.8 -- 72
2020-09-15 10:00:00 19.9 5 Sur 13 Sur 0 932.8 -- 76
2020-09-15 09:00:00 18.8 4 Sur 12 Sudeste 0 932.8 -- 79
2020-09-15 08:00:00 18.1 4 Sudeste 11 Sur 0 932.8 -- 80
2020-09-15 07:00:00 18.7 5 Sudeste 14 Sudeste 0 932.8 -- 79
2020-09-15 06:00:00 18.9 5 Sudeste 15 Sudeste 0 932.8 -- 79
2020-09-15 05:00:00 19.2 6 Sudeste 20 Sudeste 0 932.8 -- 79
2020-09-15 04:00:00 19.8 6 Sudeste 24 Sur 0.1 932.8 -- 78
2020-09-15 03:00:00 20.4 8 Sudeste 26 Sudeste 0.2 932.8 -- 76
2020-09-15 02:00:00 20.6 8 Sur 26 Sudeste 0.3 932.8 -- --
2020-09-15 01:00:00 21.4 7 Sudeste 25 Sudeste 0.3 932.8 -- --
2020-09-15 00:00:00 22.4 5 Sudoeste 13 Sur 0 932.8 -- 69
2020-09-14 23:00:00 24.9 3 Sudoeste 15 Sur 0 932.7 -- 50
2020-09-14 22:00:00 26.1 6 Sudeste 21 Sur 0 932.7 -- 45
2020-09-14 21:00:00 26.5 8 Sudeste 25 Sur 0 932.8 -- 42
2020-09-14 20:00:00 27.2 10 Sudeste 26 Sudeste 0 932.8 -- --
2020-09-14 19:00:00 28.2 10 Sur 27 Sudeste 0 932.7 -- 35
2020-09-14 18:00:00 30.1 10 Sur 29 Sudeste 0 932.7 -- 33
2020-09-14 17:00:00 30.5 11 Sur 28 Sudeste 0 932.8 -- 33
2020-09-14 16:00:00 33 7 Sur 26 Sur 0 932.8 -- 33
2020-09-14 15:00:00 31.9 7 Sur 23 Sur 0 932.8 -- 36
2020-09-14 14:00:00 28.2 9 Sur 24 Sur 0 932.8 -- 41
2020-09-14 13:00:00 27.7 7 Sur 26 Sur 0 932.8 -- 46
2020-09-14 12:00:00 25.8 9 Sur 27 Sudeste 0 932.7 -- 50
2020-09-14 11:00:00 22.9 10 Sur 33 Sur 0 932.7 -- 58
2020-09-14 10:00:00 20.8 9 Sudeste 31 Sudeste 0 932.8 -- 64
2020-09-14 09:00:00 19.5 8 Sudeste 28 Sudeste 0 932.9 -- --
2020-09-14 08:00:00 19 8 Sudeste 24 Sudeste 0 932.8 -- --
2020-09-14 07:00:00 19.2 7 Sudeste 26 Sur 0 932.8 -- 66
2020-09-14 06:00:00 19.3 5 Sudeste 24 Sudeste 0 932.8 -- 66
2020-09-14 05:00:00 19.9 6 Sudeste 27 Sur 0 932.8 -- --
2020-09-14 04:00:00 20.6 5 Sudeste 23 Sudeste 0 932.8 -- --
2020-09-14 03:00:00 21.2 5 Sudeste 19 Sur 0 932.8 -- --
2020-09-14 02:00:00 21.7 3 Sudeste 17 Sudeste 0 932.8 -- 54
2020-09-14 01:00:00 22.6 4 Sudeste 17 Sur 0 932.8 -- 50
2020-09-14 00:00:00 23.7 6 Sudeste 21 Sur 0 932.7 -- 47
2020-09-13 23:00:00 24.8 4 Sudeste 18 Sudeste 0 932.8 -- 44
2020-09-13 22:00:00 26.2 6 Sudeste 15 Sur 0 932.8 -- 40
2020-09-13 21:00:00 27.3 5 Sur 20 Sur 0 932.8 -- 37
2020-09-13 20:00:00 28.7 8 Sur 25 Sur 0 932.8 -- 35
2020-09-13 19:00:00 30.1 10 Sur 24 Sur 0 932.7 -- 33
2020-09-13 18:00:00 30.2 9 Sur 28 Sur 0 932.8 -- 32
2020-09-13 17:00:00 30.5 9 Sur 29 Sudeste 0 932.8 -- 33
2020-09-13 16:00:00 30.3 9 Sur 25 Sur 0 932.8 -- 32
2020-09-13 15:00:00 31.2 6 Sudeste 30 Sur 0 932.7 -- --
2020-09-13 14:00:00 30.5 8 Sur 31 Sur 0 932.7 -- --
2020-09-13 13:00:00 28.6 6 Sudeste 28 Sur 0 932.7 -- --
2020-09-13 12:00:00 27.2 7 Sudeste 30 Sur 0 932.8 -- 46
2020-09-13 11:00:00 24.2 9 Sudeste 26 Sudeste 0 932.8 -- 52
2020-09-13 10:00:00 21.7 7 Sudeste 26 Sur 0 932.7 -- --
2020-09-13 09:00:00 20.3 8 Sudeste 24 Sudeste 0 932.8 -- --
2020-09-13 08:00:00 19.6 7 Sudeste 22 Sudeste 0 932.8 -- 62
2020-09-13 07:00:00 19.6 5 Sudeste 27 Sudeste 0 932.9 -- 63
2020-09-13 06:00:00 20.1 7 Sudeste 27 Sudeste 0 932.8 -- 61
2020-09-13 05:00:00 20.6 8 Sudeste 30 Sudeste 0 932.8 -- 60
2020-09-13 04:00:00 21 8 Sudeste 29 Sudeste 0 932.8 -- 60
2020-09-13 03:00:00 21.5 9 Sudeste 32 Sudeste 0 932.8 -- 58
2020-09-13 02:00:00 22.3 8 Sudeste 31 Sudeste 0 932.8 -- 53
2020-09-13 01:00:00 23.1 8 Sudeste 30 Sudeste 0 932.8 -- 46
2020-09-13 00:00:00 24.2 5 Sudeste 20 Sur 0 932.8 -- 41
2020-09-12 23:00:00 25.5 4 Sudeste 13 Sudeste 0 932.8 -- 35
2020-09-12 22:00:00 26.6 4 Sudeste 14 Sur 0 932.7 -- 32
2020-09-12 21:00:00 28 0 Calma 4 Sudeste 0 932.7 -- 31
2020-09-12 20:00:00 29.8 2 Sur 9 Sudeste 0 932.8 -- --
2020-09-12 19:00:00 31.3 3 Sur 12 Sur 0 932.8 -- 28
2020-09-12 18:00:00 32.5 3 Sur 15 Sudoeste 0 932.8 -- --
2020-09-12 17:00:00 33.3 2 Oeste 14 Nordeste 0 932.8 -- --
2020-09-12 16:00:00 33 0 Calma 13 Oeste 0 932.9 -- 27
2020-09-12 15:00:00 33 4 Sur 17 Sudoeste 0 932.8 -- 29
2020-09-12 14:00:00 31.4 2 Sudeste 15 Sudoeste 0 932.8 -- 34
2020-09-12 13:00:00 29.6 5 Sur 17 Sur 0 932.8 -- 40
2020-09-12 12:00:00 27 7 Sudeste 22 Sur 0 932.8 -- 45
2020-09-12 11:00:00 23.8 9 Sudeste 28 Sudeste 0 932.8 -- 51
2020-09-12 10:00:00 21.4 9 Sudeste 28 Sudeste 0 932.7 -- 55
2020-09-12 09:00:00 19.9 8 Sudeste 26 Sur 0 932.8 -- 57
2020-09-12 08:00:00 19.3 4 Sudeste 22 Sur 0 932.8 -- 57
2020-09-12 07:00:00 19.6 4 Sudeste 21 Sur 0 932.8 -- 56
2020-09-12 06:00:00 20 7 Sudeste 19 Sudeste 0 932.8 -- 56
2020-09-12 05:00:00 20.4 0 Calma 12 Este 0 932.8 -- 57
2020-09-12 04:00:00 20.4 0 Calma 8 Este 0 932.9 -- --
2020-09-12 03:00:00 19.9 0 Calma 13 Este 0 932.8 -- --
2020-09-12 02:00:00 20.4 0 Calma 8 Sur 0 932.8 -- --
2020-09-12 01:00:00 20.7 0 Calma 3 Nordeste 0 932.8 -- 40
2020-09-12 00:00:00 22 0 Calma 3 Nordeste 0 932.8 -- 39
2020-09-11 23:00:00 23.2 0 Calma 7 Norte 0 932.8 -- --
2020-09-11 22:00:00 25.1 0 Calma 5 Norte 0 932.8 -- 33
2020-09-11 21:00:00 26.8 0 Calma 4 Norte 0 932.7 -- 31
2020-09-11 20:00:00 28.4 2 Norte 8 Noroeste 0 932.6 -- 30
2020-09-11 19:00:00 29.5 3 Noroeste 12 Noroeste 0 932.8 -- 29
2020-09-11 18:00:00 29.9 5 Noroeste 13 Noroeste 0 932.8 -- 28
2020-09-11 17:00:00 31.8 5 Sudoeste 19 Sudoeste 0 932.8 -- 29
2020-09-11 16:00:00 30.4 4 Nordeste 18 Norte 0 932.8 -- 29
2020-09-11 15:00:00 30.2 5 Nordeste 16 Norte 0 932.8 -- 31
2020-09-11 14:00:00 29.5 0 Calma 9 Sudoeste 0 932.8 -- 37
2020-09-11 13:00:00 27.4 3 Sudoeste 13 Sudeste 0 932.8 -- 44
2020-09-11 12:00:00 25.1 2 Sur 11 Sur 0 932.8 -- 57
2020-09-11 11:00:00 22 5 Sur 14 Sur 0 932.8 -- 67
2020-09-11 10:00:00 20.1 7 Sudeste 16 Sur 0 932.8 -- 76
2020-09-11 09:00:00 17 0 Calma 3 Nordeste 0 932.9 -- --
2020-09-11 08:00:00 16.3 2 Nordeste 5 Nordeste 0 932.9 -- --
2020-09-11 07:00:00 17.3 0 Calma 7 Este 0 932.9 -- 76
2020-09-11 06:00:00 18.6 2 Este 10 Este 0 932.8 -- --
2020-09-11 05:00:00 19.4 0 Calma 8 Este 0 932.7 -- 73
2020-09-11 04:00:00 20 0 Calma 11 Sur 0 932.9 -- --
2020-09-11 03:00:00 20.6 4 Sudeste 12 Sur 0 932.7 -- 64
2020-09-11 02:00:00 21 3 Este 14 Nordeste 0 932.8 -- 52
2020-09-11 01:00:00 21.5 3 Este 13 Este 0 932.9 -- 43
2020-09-11 00:00:00 20.7 3 Nordeste 7 Nordeste 0 932.8 -- 41
2020-09-10 23:00:00 23 0 Calma 3 Nordeste 0 932.8 -- 37
2020-09-10 22:00:00 25 2 Norte 5 Norte 0 932.7 -- 34
2020-09-10 21:00:00 26.4 3 Norte 7 Norte 0 932.8 -- 32
2020-09-10 20:00:00 28.2 4 Norte 14 Norte 0 932.8 -- 29
2020-09-10 19:00:00 28.6 8 Norte 20 Norte 0 932.8 -- 30
2020-09-10 18:00:00 28.8 5 Nordeste 17 Nordeste 0 932.8 -- 30
2020-09-10 17:00:00 29.8 3 Norte 17 Norte 0 932.8 -- --
2020-09-10 16:00:00 29.1 6 Nordeste 18 Nordeste 0 932.8 -- --
2020-09-10 15:00:00 27.9 4 Norte 20 Noroeste 0 932.8 -- --
2020-09-10 14:00:00 26 3 Norte 16 Norte 0 932.8 -- --
2020-09-10 13:00:00 24.6 3 Norte 9 Noroeste 0 932.8 -- 49
2020-09-10 12:00:00 22.4 0 Calma 6 Oeste 0 932.8 -- 59
2020-09-10 11:00:00 19.9 2 Nordeste 7 Este 0 932.8 -- --
2020-09-10 10:00:00 17.6 0 Calma 5 Nordeste 0 932.9 -- 79
2020-09-10 09:00:00 14.8 3 Nordeste 6 Nordeste 0 932.9 -- 79
2020-09-10 08:00:00 14.1 3 Nordeste 9 Nordeste 0 932.9 -- 76
2020-09-10 07:00:00 14.6 0 Calma 6 Oeste 0 932.9 -- 72
2020-09-10 06:00:00 15.3 2 Oeste 6 Oeste 0 932.8 -- 67
2020-09-10 05:00:00 17 0 Calma 7 Nordeste 0 932.9 -- 65
2020-09-10 04:00:00 17.8 0 Calma 6 Sudeste 0 932.8 -- 67
2020-09-10 03:00:00 18.8 2 Sudeste 10 Sudeste 0 932.9 -- 61
2020-09-10 02:00:00 19.2 5 Sudeste 12 Sudeste 0 932.9 -- 46
2020-09-10 01:00:00 19.1 0 Calma 3 Nordeste 0 932.8 -- 41
2020-09-10 00:00:00 20.3 0 Calma 3 Sudoeste 0 932.8 -- 41
2020-09-09 23:00:00 21.9 0 Calma 4 Norte 0 932.8 -- 37
2020-09-09 22:00:00 22.8 0 Calma 3 Nordeste 0 932.8 -- --
2020-09-09 21:00:00 25.2 0 Calma 9 Nordeste 0 932.8 -- --
2020-09-09 20:00:00 26.6 6 Nordeste 16 Norte 0 932.8 -- --
2020-09-09 19:00:00 27.1 8 Nordeste 20 Nordeste 0 932.8 -- --
2020-09-09 18:00:00 27.5 4 Nordeste 22 Noroeste 0 932.8 -- --
2020-09-09 17:00:00 28.1 4 Norte 19 Norte 0 932.8 -- 31
2020-09-09 16:00:00 28.1 3 Oeste 17 Norte 0 932.8 -- --
2020-09-09 15:00:00 27.1 4 Norte 15 Este 0 932.7 -- 35
2020-09-09 14:00:00 25.9 2 Este 14 Este 0 932.8 -- 39
2020-09-09 13:00:00 24.7 2 Sudeste 14 Sur 0 932.8 -- 44
2020-09-09 12:00:00 22.8 2 Sur 13 Sudeste 0 932.8 -- 52
2020-09-09 11:00:00 20.3 4 Sur 15 Sudeste 0 932.9 -- 60
2020-09-09 10:00:00 18.5 0 Calma 12 Sur 0 932.9 -- 64
2020-09-09 09:00:00 16.3 0 Calma 8 Sur 0 932.9 -- 67
2020-09-09 08:00:00 15.9 0 Calma 11 Sur 0 932.9 -- 67
2020-09-09 07:00:00 16 0 Calma 12 Sudeste 0 932.9 -- 67
2020-09-09 06:00:00 16.1 2 Sudeste 13 Sudeste 0 932.8 -- 66
2020-09-09 05:00:00 16.4 4 Sur 18 Sudeste 0 932.8 -- 63
2020-09-09 04:00:00 16.7 6 Sudeste 17 Sudeste 0 932.8 -- --
2020-09-09 03:00:00 17.2 6 Sudeste 21 Sudeste 0 932.8 -- --
2020-09-09 02:00:00 17.9 8 Sudeste 22 Sur 0 932.9 -- 50
2020-09-09 01:00:00 18.8 8 Sudeste 27 Sudeste 0 932.8 -- 45
2020-09-09 00:00:00 19.7 6 Sudeste 18 Sur 0 932.8 -- --
2020-09-08 23:00:00 20.6 3 Sudeste 16 Sur 0 932.8 -- 39
2020-09-08 22:00:00 21.4 0 Calma 10 Sudeste 0 932.8 -- --
2020-09-08 21:00:00 22.9 2 Sudeste 17 Sur 0 932.8 -- --
2020-09-08 20:00:00 24.3 6 Sudeste 19 Sudeste 0 932.8 -- 33
2020-09-08 19:00:00 25.2 5 Sudeste 21 Sudeste 0 932.7 -- 33
2020-09-08 18:00:00 26.7 5 Sudeste 21 Sudeste 0 932.8 -- 32
2020-09-08 17:00:00 27.6 3 Sudeste 22 Sudeste 0 932.8 -- 32
2020-09-08 16:00:00 26.3 4 Sudeste 24 Sudeste 0 932.8 -- 33
2020-09-08 15:00:00 26.6 4 Sudeste 31 Sur 0 932.8 -- 37
2020-09-08 14:00:00 24.9 8 Sur 24 Sur 0 932.7 -- 42
2020-09-08 13:00:00 23.6 8 Sur 28 Sudeste 0 932.8 -- 47
2020-09-08 12:00:00 21.1 8 Sudeste 26 Sur 0 932.8 -- 56
2020-09-08 11:00:00 19.1 6 Sudeste 25 Sur 0 932.9 -- 65
2020-09-08 10:00:00 17.1 3 Sudeste 19 Este 0 932.9 -- --
2020-09-08 09:00:00 15.5 4 Este 17 Este 0 932.9 -- --
2020-09-08 08:00:00 15.3 4 Este 14 Este 0 932.8 -- --
2020-09-08 07:00:00 15.6 4 Este 14 Este 0 932.9 -- 87
2020-09-08 06:00:00 15.7 3 Este 13 Este 0 932.9 -- --
2020-09-08 05:00:00 16.3 0 Calma 13 Este 0 932.9 -- 82
2020-09-08 04:00:00 16.6 3 Sudeste 19 Sudeste 0 932.9 -- --
2020-09-08 03:00:00 17.2 4 Sudeste 22 Sur 0 932.9 -- --
2020-09-08 02:00:00 17.2 5 Sudeste 25 Sudeste 0 932.8 -- 76
2020-09-08 01:00:00 17.8 6 Sudeste 26 Sur 0 932.9 -- 72
2020-09-08 00:00:00 19.3 5 Sudeste 20 Sudeste 0 932.8 -- 64
2020-09-07 23:00:00 19.9 4 Este 17 Este 0 932.9 -- 30
2020-09-07 22:00:00 20.9 4 Nordeste 13 Nordeste 0 932.8 -- 29
2020-09-07 21:00:00 23.2 5 Nordeste 22 Norte 0 932.8 -- 28
2020-09-07 20:00:00 25.3 9 Nordeste 27 Nordeste 0 932.7 -- 27
2020-09-07 19:00:00 26.2 10 Nordeste 33 Nordeste 0 932.8 -- 28
2020-09-07 18:00:00 26.3 9 Nordeste 26 Nordeste 0 932.8 -- 28
2020-09-07 17:00:00 26.5 11 Nordeste 27 Norte 0 932.8 -- 28
2020-09-07 16:00:00 26.5 12 Norte 32 Norte 0 932.8 -- 27
2020-09-07 15:00:00 26.1 10 Nordeste 24 Nordeste 0 932.8 -- --
2020-09-07 14:00:00 25.2 7 Nordeste 26 Norte 0 932.8 -- 33
2020-09-07 13:00:00 23.4 6 Nordeste 21 Nordeste 0 932.8 -- 37
2020-09-07 12:00:00 21.4 6 Nordeste 22 Este 0 932.9 -- --
2020-09-07 11:00:00 19.9 7 Nordeste 22 Este 0 932.9 -- --
2020-09-07 10:00:00 17.7 7 Nordeste 18 Norte 0 932.9 -- --
2020-09-07 09:00:00 16.2 4 Nordeste 11 Nordeste 0 932.8 -- 63
2020-09-07 08:00:00 15.5 4 Nordeste 12 Nordeste 0 932.9 -- --
2020-09-07 07:00:00 16.2 3 Nordeste 11 Nordeste 0 932.8 -- 63
2020-09-07 06:00:00 17.1 4 Nordeste 11 Nordeste 0 932.9 -- 57
2020-09-07 05:00:00 17.9 3 Nordeste 6 Nordeste 0 932.8 -- 49
2020-09-07 04:00:00 19.5 2 Nordeste 13 Norte 0 932.8 -- 44
2020-09-07 03:00:00 19.9 5 Nordeste 13 Norte 0 932.8 -- 41
2020-09-07 02:00:00 21.4 4 Nordeste 10 Nordeste 0 932.8 -- 37
2020-09-07 01:00:00 24.1 4 Nordeste 10 Nordeste 0 932.9 -- 36
2020-09-07 00:00:00 23.6 0 Calma 14 Nordeste 0 932.8 -- 36
2020-09-06 23:00:00 24.9 0 Calma 4 Nordeste 0 932.8 -- 34
2020-09-06 22:00:00 26.8 0 Calma 2 Sudoeste 0 932.8 -- 33
2020-09-06 21:00:00 28.5 0 Calma 3 Noroeste 0 932.8 -- 29
2020-09-06 20:00:00 30.1 0 Calma 12 Oeste 0 932.8 -- 27
2020-09-06 19:00:00 30.8 4 Sudoeste 12 Sudoeste 0 932.8 -- --
2020-09-06 18:00:00 32.3 3 Noroeste 13 Sudoeste 0 932.9 -- --
2020-09-06 17:00:00 33.5 2 Norte 15 Sur 0 932.9 -- --
2020-09-06 16:00:00 33.6 3 Sudoeste 15 Sudeste 0 932.8 -- 23
2020-09-06 15:00:00 32.2 4 Sur 20 Sudeste 0 932.7 -- 25
2020-09-06 14:00:00 30.2 5 Sudeste 21 Sudeste 0 932.7 -- 29
2020-09-06 13:00:00 28.4 5 Sur 24 Sur 0 932.7 -- 34
2020-09-06 12:00:00 25.7 7 Sudeste 24 Sur 0 932.8 -- 40
2020-09-06 11:00:00 23.6 8 Sudeste 23 Sur 0 932.8 -- 47
2020-09-06 10:00:00 21.4 8 Sur 20 Sudeste 0 932.8 -- 52
2020-09-06 09:00:00 19.5 4 Sudeste 14 Sudeste 0 932.8 -- 59
2020-09-06 08:00:00 19 0 Calma 13 Sur 0 932.8 -- 64
2020-09-06 07:00:00 19 0 Calma 20 Sur 0 932.9 -- 66
2020-09-06 06:00:00 19.4 5 Sudeste 27 Sudeste 0 932.8 -- 72
2020-09-06 05:00:00 19.6 7 Sudeste 23 Sudeste 0 932.8 -- 69
2020-09-06 04:00:00 20.5 9 Sudeste 29 Sur 0 932.7 -- 66
2020-09-06 03:00:00 20.9 10 Sudeste 32 Sudeste 0 932.9 -- 60
2020-09-06 02:00:00 21.7 9 Sudeste 36 Sudeste 0 932.7 -- --
2020-09-06 01:00:00 22.8 10 Sudeste 43 Sudeste 0 932.8 -- --
2020-09-06 00:00:00 24 10 Sudeste 29 Sudeste 0 932.8 -- 40
2020-09-05 23:00:00 25.6 8 Sudeste 25 Sudeste 0 932.8 -- --
2020-09-05 22:00:00 27.2 5 Sudeste 14 Sudeste 0 932.8 -- --
2020-09-05 21:00:00 28.7 3 Sur 9 Sudeste 0 932.8 -- --
2020-09-05 20:00:00 30.8 2 Sur 12 Oeste 0 932.7 -- --
2020-09-05 19:00:00 31.5 3 Sur 13 Sudeste 0 932.9 -- 26
2020-09-05 18:00:00 32.6 0 Calma 11 Sudeste 0 932.8 -- 25
2020-09-05 17:00:00 33.5 6 Sudoeste 12 Sur 0 932.8 -- 25
2020-09-05 16:00:00 32.7 0 Calma 12 Sur 0 932.7 -- 26
2020-09-05 15:00:00 31.7 4 Sur 15 Sudeste 0 932.7 -- 30
2020-09-05 14:00:00 30.5 0 Calma 14 Sudoeste 0 932.8 -- 37
2020-09-05 13:00:00 28 5 Sur 15 Sudeste 0 932.7 -- 45
2020-09-05 12:00:00 25.7 7 Sur 19 Sudeste 0 932.8 -- 55
2020-09-05 11:00:00 22.3 6 Sudeste 19 Sudeste 0 932.8 -- 68
2020-09-05 10:00:00 19.9 6 Sur 20 Sudeste 0 932.9 -- --
2020-09-05 09:00:00 18.1 6 Sudeste 21 Sudeste 0 932.9 -- --
2020-09-05 08:00:00 17.5 3 Sudeste 17 Sur 0 932.8 -- --
2020-09-05 07:00:00 18.1 5 Sudeste 19 Sur 0 932.8 -- 80
2020-09-05 06:00:00 18.8 3 Sudeste 17 Sudeste 0 932.6 -- 77
2020-09-05 05:00:00 18.9 2 Este 18 Sur 0 932.8 -- 76
2020-09-05 04:00:00 19.4 0 Calma 17 Sur 0 932.8 -- 74
2020-09-05 03:00:00 20.1 3 Sudeste 26 Sudeste 0 932.8 -- --
2020-09-05 02:00:00 21.1 9 Sudeste 23 Sur 0 932.8 -- 61
2020-09-05 01:00:00 22.2 4 Sudeste 22 Sudeste 0 932.8 -- 52
2020-09-05 00:00:00 22.4 2 Sudeste 9 Sur 0 932.8 -- 46
2020-09-04 23:00:00 23.4 0 Calma 10 Sudeste 0 932.8 -- 44
2020-09-04 22:00:00 24.7 0 Calma 9 Sudeste 0 932.8 -- 37
2020-09-04 21:00:00 26.7 4 Sudeste 16 Sur 0 932.8 -- 34
2020-09-04 20:00:00 28.5 6 Sudeste 23 Sur 0 932.6 -- 31
2020-09-04 19:00:00 29.1 9 Sur 23 Sur 0 932.8 -- 29
2020-09-04 18:00:00 30.7 6 Sudeste 22 Sur 0 932.8 -- 26
2020-09-04 17:00:00 32.3 7 Sur 25 Sur 0 932.9 -- 26
2020-09-04 16:00:00 31.1 9 Sur 25 Sur 0 932.8 -- 28
2020-09-04 15:00:00 29.8 5 Sur 22 Sudeste 0 932.7 -- --
2020-09-04 14:00:00 28.2 6 Sudeste 25 Sudeste 0 932.8 -- 33
2020-09-04 13:00:00 26.9 5 Sudeste 26 Sudeste 0 932.8 -- --
2020-09-04 12:00:00 24.3 8 Sudeste 26 Sudeste 0 932.6 -- 48
2020-09-04 11:00:00 22.3 4 Sudeste 21 Sudeste 0 932.8 -- 57
2020-09-04 10:00:00 19.9 5 Sudeste 17 Sur 0 932.8 -- 64
2020-09-04 09:00:00 18.8 3 Sudeste 15 Sudeste 0 932.8 -- 68
2020-09-04 08:00:00 17.9 2 Sudeste 14 Sudeste 0 932.7 -- 72
2020-09-04 07:00:00 18.2 3 Sudeste 16 Sur 0 932.8 -- 72
2020-09-04 06:00:00 18.8 4 Sudeste 24 Sur 0 932.8 -- 69
2020-09-04 05:00:00 19.1 9 Sudeste 26 Sur 0 932.8 -- 68
2020-09-04 04:00:00 19.6 7 Sudeste 29 Este 0 932.8 -- 66
2020-09-04 03:00:00 20.4 6 Sudeste 24 Sudeste 0 932.8 -- 64
2020-09-04 02:00:00 21.4 9 Sudeste 32 Sur 0 932.9 -- 59
2020-09-04 01:00:00 22 6 Sudeste 25 Sudeste 0 932.8 -- 49
2020-09-04 00:00:00 23.3 4 Sudeste 12 Sudeste 0 932.6 -- 36
2020-09-03 23:00:00 24.4 4 Sudeste 10 Sudeste 0 932.8 -- 33
2020-09-03 22:00:00 25.6 3 Sudeste 9 Sudeste 0 932.8 -- 29
2020-09-03 21:00:00 27.1 2 Sur 11 Sudeste 0 932.8 -- --
2020-09-03 20:00:00 29.6 4 Sur 16 Sur 0 932.8 -- --
2020-09-03 19:00:00 29.6 5 Sudoeste 13 Sur 0 932.8 -- --
2020-09-03 18:00:00 31.5 5 Sur 15 Sudoeste 0 932.8 -- --
2020-09-03 17:00:00 32.4 4 Sur 17 Sur 0 932.8 -- 23
2020-09-03 16:00:00 31.6 4 Sur 13 Oeste 0 932.8 -- --
2020-09-03 15:00:00 29.5 2 Noroeste 18 Sudeste 0 932.8 -- 27
2020-09-03 14:00:00 29.4 2 Sur 16 Sur 0 932.8 -- 33
2020-09-03 13:00:00 27.7 4 Sur 15 Sur 0 932.8 -- 42
2020-09-03 12:00:00 24.5 6 Sudeste 17 Sur 0 932.9 -- 54
2020-09-03 11:00:00 21.9 6 Sur 20 Sur 0 932.8 -- 68
2020-09-03 10:00:00 19.4 7 Sudeste 25 Sudeste 0 932.9 -- 79
2020-09-03 09:00:00 18 6 Sudeste 21 Sur 0 932.9 -- 87
2020-09-03 08:00:00 17.4 4 Sudeste 22 Sur 0 932.9 -- 88
2020-09-03 07:00:00 17.6 5 Sudeste 24 Sudeste 0 932.8 -- 87
2020-09-03 06:00:00 17.7 5 Sudeste 19 Sur 0 932.8 -- 84
2020-09-03 05:00:00 18.2 3 Sudeste 18 Sudeste 0 932.9 -- 79
2020-09-03 04:00:00 18.7 4 Sudeste 26 Sudeste 0 932.9 -- --
2020-09-03 03:00:00 18.9 5 Sudeste 23 Sur 0 932.8 -- --
2020-09-03 02:00:00 19.9 4 Sudeste 18 Sudeste 0 932.8 -- --
2020-09-03 01:00:00 19.7 0 Calma 6 Sur 0 932.8 -- 36
2020-09-03 00:00:00 21.3 2 Nordeste 7 Este 0 932.8 -- 31
2020-09-02 23:00:00 22.1 2 Nordeste 7 Nordeste 0 932.9 -- --
2020-09-02 22:00:00 23.8 2 Nordeste 6 Norte 0 932.9 -- --
2020-09-02 21:00:00 26 4 Nordeste 12 Norte 0 932.9 -- 26
2020-09-02 20:00:00 27.9 3 Norte 15 Norte 0 932.8 -- 26
2020-09-02 19:00:00 28.3 5 Nordeste 15 Nordeste 0 932.9 -- 26
2020-09-02 18:00:00 28.4 3 Noroeste 16 Nordeste 0 932.8 -- 25
2020-09-02 17:00:00 29.4 0 Calma 18 Norte 0 932.8 -- 27
2020-09-02 16:00:00 29.1 3 Norte 12 Nordeste 0 932.9 -- 29
2020-09-02 15:00:00 28.3 3 Oeste 16 Este 0 932.8 -- 32
2020-09-02 14:00:00 26.6 5 Este 18 Este 0 932.8 -- 39
2020-09-02 13:00:00 25 3 Nordeste 13 Sur 0 932.8 -- 47
2020-09-02 12:00:00 23.7 4 Sur 15 Sur 0 932.7 -- 57
2020-09-02 11:00:00 21.3 4 Sudeste 15 Sur 0 932.9 -- --
2020-09-02 10:00:00 19.7 4 Sudeste 30 Sur 0 932.9 -- --
2020-09-02 09:00:00 18.4 3 Sudeste 15 Sur 0 932.8 -- 76
2020-09-02 08:00:00 17.7 2 Sudeste 17 Sudeste 0 932.9 -- 82
2020-09-02 07:00:00 17.8 3 Sudeste 15 Sur 0 932.9 -- 82
2020-09-02 06:00:00 18 5 Sudeste 18 Sur 0 932.9 -- --
2020-09-02 05:00:00 18.2 3 Sudeste 17 Sur 0 932.8 -- 80
2020-09-02 04:00:00 17.8 0 Calma 7 Este 0 932.9 -- 67
2020-09-02 03:00:00 16.1 2 Oeste 10 Sudoeste 0 932.9 -- 44
2020-09-02 02:00:00 17.6 0 Calma 6 Nordeste 0 932.9 -- 42
2020-09-02 01:00:00 18.9 2 Nordeste 4 Nordeste 0 932.9 -- 39
2020-09-02 00:00:00 20.4 0 Calma 4 Este 0 932.8 -- 36
2020-09-01 23:00:00 0 -- -- -- -- -- -- -- --
2020-09-01 22:00:00 23.3 4 Este 8 Este 0 932.9 -- --
2020-09-01 21:00:00 24.5 0 Calma 8 Norte 0 932.7 -- --
2020-09-01 20:00:00 26.5 3 Nordeste 8 Noroeste 0 932.8 -- 27
2020-09-01 19:00:00 26.3 0 Calma 9 Noroeste 0 932.8 -- 28
2020-09-01 18:00:00 26.3 3 Noroeste 12 Sudoeste 0 932.6 -- 28
2020-09-01 17:00:00 26.7 3 Oeste 16 Norte 0 932.8 -- 29
2020-09-01 16:00:00 26.2 5 Noroeste 14 Norte 0 932.8 -- 30
2020-09-01 15:00:00 26.1 5 Sudoeste 12 Sudoeste 0 932.8 -- 34
2020-09-01 14:00:00 23.9 2 Sudoeste 8 Sudoeste 0 932.8 -- 51
2020-09-01 13:00:00 22.1 0 Calma 14 Sur 0 932.6 -- 60
2020-09-01 12:00:00 20.6 6 Sur 16 Sur 0 932.8 -- 67
2020-09-01 11:00:00 19.2 5 Sur 13 Sudeste 0 932.8 -- 74
2020-09-01 10:00:00 17.3 3 Sudeste 9 Sur 0 932.9 -- 72
2020-09-01 09:00:00 15.1 0 Calma 3 Nordeste 0 933 -- --
2020-09-01 08:00:00 14.1 0 Calma 2 Nordeste 0 933 -- 61
2020-09-01 07:00:00 13.2 0 Calma 4 Nordeste 0 932.9 -- --
2020-09-01 06:00:00 13.7 2 Nordeste 4 Nordeste 0 933 -- --
2020-09-01 05:00:00 14.3 3 Nordeste 9 Nordeste 0 932.9 -- --
2020-09-01 04:00:00 15.1 0 Calma 5 Sur 0 933 -- --
2020-09-01 03:00:00 15.4 0 Calma 6 Este 0 932.9 -- 41
2020-09-01 02:00:00 15 3 Nordeste 8 Nordeste 0 932.9 -- 40
2020-09-01 01:00:00 17.1 0 Calma 4 Nordeste 0 932.9 -- 37
2020-09-01 00:00:00 17.4 2 Nordeste 5 Nordeste 0 932.9 -- 36
2020-08-31 23:00:00 19.3 3 Nordeste 5 Nordeste 0 932.9 -- 33
2020-08-31 22:00:00 21.5 0 Calma 5 Nordeste 0 932.9 -- 30
2020-08-31 21:00:00 23.6 0 Calma 8 Norte 0 932.8 -- 27
2020-08-31 20:00:00 25.2 4 Norte 13 Norte 0 932.8 -- 26
2020-08-31 19:00:00 25.1 4 Nordeste 12 Nordeste 0 932.8 -- 27
2020-08-31 18:00:00 25.7 0 Calma 18 Noroeste 0 932.9 -- 27
2020-08-31 17:00:00 26.3 5 Norte 17 Noroeste 0 932.8 -- --
2020-08-31 16:00:00 25.1 4 Norte 14 Sudoeste 0 932.8 -- --
2020-08-31 15:00:00 25.2 3 Sur 12 Sur 0 932.8 -- 35
2020-08-31 14:00:00 22.9 4 Sudoeste 16 Sur 0 932.8 -- --
2020-08-31 13:00:00 22.3 2 Oeste 14 Sur 0 932.9 -- 43
2020-08-31 12:00:00 20.4 6 Sudoeste 15 Oeste 0 932.8 -- --
2020-08-31 11:00:00 18.5 5 Sudeste 14 Sur 0 932.9 -- --
2020-08-31 10:00:00 15.5 3 Nordeste 9 Nordeste 0 932.9 -- --
2020-08-31 09:00:00 12.7 4 Nordeste 10 Nordeste 0 933 -- 61
2020-08-31 08:00:00 10.7 3 Nordeste 6 Nordeste 0 933 -- 60
2020-08-31 07:00:00 12.4 0 Calma 9 Este 0 933 -- 57
2020-08-31 06:00:00 13.9 3 Este 15 Este 0 933 -- 54
2020-08-31 05:00:00 14.7 4 Este 14 Este 0 932.8 -- 51
2020-08-31 04:00:00 14 0 Calma 11 Este 0 932.9 -- 46
2020-08-31 03:00:00 13.6 3 Nordeste 17 Este 0 933 -- 42
2020-08-31 02:00:00 14 5 Nordeste 17 Este 0 933 -- 40
2020-08-31 01:00:00 14.8 3 Nordeste 10 Nordeste 0 932.9 -- 37
2020-08-31 00:00:00 16.5 2 Nordeste 8 Este 0 932.9 -- 35
2020-08-30 23:00:00 17.4 3 Nordeste 9 Nordeste 0 932.9 -- 34
2020-08-30 22:00:00 19.3 5 Nordeste 11 Nordeste 0 932.8 -- 32
2020-08-30 21:00:00 20.9 5 Nordeste 13 Nordeste 0 932.9 -- 30
2020-08-30 20:00:00 22.3 5 Norte 18 Nordeste 0 932.9 -- --
2020-08-30 19:00:00 22.8 5 Norte 24 Norte 0 932.8 -- --
2020-08-30 18:00:00 22.9 5 Norte 19 Nordeste 0 932.8 -- 29
2020-08-30 17:00:00 23.5 4 Nordeste 22 Nordeste 0 932.8 -- 30
2020-08-30 16:00:00 22.6 6 Norte 20 Nordeste 0 932.8 -- 32
2020-08-30 15:00:00 21.9 4 Nordeste 19 Nordeste 0 932.8 -- --
2020-08-30 14:00:00 20.5 5 Nordeste 21 Nordeste 0 932.9 -- --
2020-08-30 13:00:00 19.4 5 Nordeste 19 Nordeste 0 932.8 -- 45
2020-08-30 12:00:00 18 7 Nordeste 18 Este 0 932.9 -- --
2020-08-30 11:00:00 16 6 Nordeste 21 Nordeste 0 932.9 -- --
2020-08-30 10:00:00 13.9 7 Nordeste 22 Nordeste 0 933 -- --
2020-08-30 09:00:00 11.9 6 Nordeste 17 Nordeste 0 933 -- --
2020-08-30 08:00:00 10 5 Nordeste 13 Nordeste 0 933 -- --
2020-08-30 07:00:00 11.1 4 Nordeste 11 Nordeste 0 933 -- --
2020-08-30 06:00:00 11.8 4 Nordeste 9 Norte 0 933 -- 69
2020-08-30 05:00:00 12.4 2 Nordeste 8 Nordeste 0 932.9 -- 64
2020-08-30 04:00:00 13.7 0 Calma 11 Nordeste 0 932.9 -- 60
2020-08-30 03:00:00 14.3 4 Nordeste 19 Nordeste 0 933 -- 56
2020-08-30 02:00:00 15.3 6 Nordeste 18 Este 0 933 -- 52
2020-08-30 01:00:00 16.1 6 Nordeste 19 Nordeste 0 932.9 -- 47
2020-08-30 00:00:00 17.1 5 Nordeste 19 Nordeste 0 932.9 -- 43
2020-08-29 23:00:00 18.1 8 Nordeste 23 Nordeste 0 932.9 -- 40
2020-08-29 22:00:00 19.6 10 Nordeste 34 Nordeste 0 932.9 -- 36
2020-08-29 21:00:00 21 5 Norte 22 Norte 0 932.8 -- 32
2020-08-29 20:00:00 22.5 9 Norte 27 Norte 0 932.8 -- 31
2020-08-29 19:00:00 22.9 7 Norte 26 Norte 0 932.8 -- 31
2020-08-29 18:00:00 23.4 9 Norte 32 Norte 0 932.8 -- --
2020-08-29 17:00:00 23.5 12 Norte 30 Norte 0 932.8 -- --
2020-08-29 16:00:00 23.1 12 Nordeste 31 Norte 0 932.9 -- --
2020-08-29 15:00:00 22.7 10 Norte 33 Norte 0 932.9 -- --
2020-08-29 14:00:00 21.6 10 Norte 32 Nordeste 0 932.8 -- 36
2020-08-29 13:00:00 20.5 11 Nordeste 32 Norte 0 932.9 -- 40
2020-08-29 12:00:00 20.1 13 Nordeste 44 Norte 0 932.9 -- --
2020-08-29 11:00:00 18.4 13 Nordeste 35 Nordeste 0 932.8 -- 49
2020-08-29 10:00:00 18.2 12 Nordeste 30 Nordeste 0 932.9 -- 54
2020-08-29 09:00:00 16.1 9 Nordeste 25 Nordeste 0 932.9 -- 62
2020-08-29 08:00:00 14.9 6 Nordeste 16 Nordeste 0 932.9 -- 71
2020-08-29 07:00:00 15.8 7 Nordeste 20 Norte 0 932.9 -- 70
2020-08-29 06:00:00 16.4 5 Nordeste 17 Nordeste 0 932.9 -- 54
2020-08-29 05:00:00 17.1 2 Norte 12 Noroeste 0 932.9 -- 43
2020-08-29 04:00:00 17.7 4 Norte 10 Noroeste 0 932.9 -- 37
2020-08-29 03:00:00 18.9 3 Norte 14 Noroeste 0 932.8 -- 33
2020-08-29 02:00:00 20.3 4 Norte 17 Nordeste 0 932.8 -- 32
2020-08-29 01:00:00 21.8 8 Norte 16 Norte 0 932.8 -- 29
2020-08-29 00:00:00 22.7 5 Noroeste 18 Noroeste 0 932.8 -- 30
2020-08-28 23:00:00 24.3 9 Noroeste 17 Noroeste 0 932.7 -- 28
2020-08-28 22:00:00 26 10 Noroeste 20 Noroeste 0 932.9 -- 25
2020-08-28 21:00:00 28.3 6 Norte 26 Noroeste 0 932.8 -- --
2020-08-28 20:00:00 30.6 13 Noroeste 31 Noroeste 0 932.9 -- --
2020-08-28 19:00:00 31.5 15 Noroeste 37 Noroeste 0 932.8 -- --
2020-08-28 18:00:00 32.9 11 Noroeste 31 Oeste 0 932.8 -- 31
2020-08-28 17:00:00 33.3 5 Noroeste 36 Sudoeste 0 932.9 -- --
2020-08-28 16:00:00 33.6 10 Oeste 32 Sudoeste 0 932.8 -- --
2020-08-28 15:00:00 31.9 8 Oeste 26 Oeste 0 932.8 -- 33
2020-08-28 14:00:00 31.4 5 Oeste 26 Noroeste 0 932.8 -- 34
2020-08-28 13:00:00 29.3 4 Noroeste 16 Noroeste 0 932.8 -- 36
2020-08-28 12:00:00 27 5 Noroeste 16 Noroeste 0 932.9 -- 40
2020-08-28 11:00:00 24.1 5 Noroeste 14 Noroeste 0 932.9 -- 44
2020-08-28 10:00:00 21 3 Sudoeste 8 Sudoeste 0 932.9 -- 47
2020-08-28 09:00:00 19.3 0 Calma 6 Este 0 932.9 -- 48
2020-08-28 08:00:00 18.4 3 Nordeste 7 Este 0 932.8 -- 45
2020-08-28 07:00:00 18.9 4 Norte 12 Noroeste 0 932.8 -- 42
2020-08-28 06:00:00 20.4 3 Nordeste -- -- -- 932.9 -- 37
2020-08-28 05:00:00 22.1 0 Calma 10 Norte 0 932.8 -- --
2020-08-28 04:00:00 22.6 4 Norte 9 Noroeste 0 932.8 -- --
2020-08-28 03:00:00 24.1 2 Sudeste 13 Sudeste 0 932.9 -- --
2020-08-28 02:00:00 24.8 3 Norte 14 Norte 0 932.7 -- 29
2020-08-28 01:00:00 26.1 0 Calma 10 Sur 0 932.8 -- 29
2020-08-28 00:00:00 26.8 0 Calma 5 Este 0 932.9 -- 28
2020-08-27 23:00:00 28.5 2 Nordeste 11 Nordeste 0 932.9 -- 25
2020-08-27 22:00:00 30.1 3 Nordeste 9 Este 0 932.8 -- 23
2020-08-27 21:00:00 33.2 3 Nordeste 9 Este 0 932.9 -- 21
2020-08-27 20:00:00 34.5 0 Calma 10 Sudeste 0 932.8 -- 21
2020-08-27 19:00:00 35.3 0 Calma 15 Noroeste 0 932.9 -- 20
2020-08-27 18:00:00 36.4 5 Noroeste 18 Noroeste 0 932.9 -- 19
2020-08-27 17:00:00 36.8 4 Oeste 18 Oeste 0 932.9 -- 20
2020-08-27 16:00:00 36.1 3 Noroeste 20 Noroeste 0 932.9 -- 21
2020-08-27 15:00:00 34.9 3 Oeste 18 Oeste 0 932.8 -- --
2020-08-27 14:00:00 34.2 5 Oeste 17 Sudoeste 0 932.8 -- 25
2020-08-27 13:00:00 31.9 4 Oeste 13 Sudoeste 0 932.8 -- --
2020-08-27 12:00:00 29.4 4 Oeste 11 Sudoeste 0 932.8 -- --
2020-08-27 11:00:00 26.2 5 Oeste 9 Sudoeste 0 932.8 -- --
2020-08-27 10:00:00 22.9 3 Sur 8 Sur 0 932.8 -- 37
2020-08-27 09:00:00 21.6 4 Sur 6 Sur 0 932.9 -- 40
2020-08-27 08:00:00 20.5 2 Sur 5 Sur 0 932.8 -- 40
2020-08-27 07:00:00 20.9 3 Sur 9 Sur 0 932.9 -- 39
2020-08-27 06:00:00 21.9 3 Sur 10 Sudeste 0 932.8 -- 37
2020-08-27 05:00:00 22.6 4 Sur 11 Sur 0 932.9 -- 37
2020-08-27 04:00:00 22.7 4 Sur 9 Sur 0 932.7 -- 39
2020-08-27 03:00:00 23.6 0 Calma 3 Sudoeste 0 932.8 -- 36
2020-08-27 02:00:00 23.9 0 Calma 5 Sudoeste 0 932.8 -- 33
2020-08-27 01:00:00 26.4 4 Nordeste 8 Nordeste 0 932.8 -- 29
2020-08-27 00:00:00 27.9 0 Calma 9 Norte 0 932.8 -- 28
2020-08-26 23:00:00 29.6 5 Norte 15 Norte 0 932.8 -- 25
2020-08-26 22:00:00 31.7 6 Norte 13 Norte 0 932.8 -- 22
2020-08-26 21:00:00 33 2 Sur 8 Sudoeste 0 932.9 -- 21
2020-08-26 20:00:00 35.4 3 Sudoeste 16 Sudoeste 0 932.8 -- 20
2020-08-26 19:00:00 35.6 4 Sudoeste 16 Sudoeste 0 932.9 -- --
2020-08-26 18:00:00 37 5 Sudoeste 19 Oeste 0 932.9 -- --
2020-08-26 17:00:00 37.2 5 Sudoeste 26 Oeste 0 932.9 -- --
2020-08-26 16:00:00 36.5 3 Sur 19 Noroeste 0 932.8 -- 21
2020-08-26 15:00:00 34.4 3 Oeste 19 Sudoeste 0 932.9 -- 23
2020-08-26 14:00:00 34.2 3 Oeste 10 Noroeste 0 932.8 -- 25
2020-08-26 13:00:00 31.3 2 Noroeste 11 Sudoeste 0 932.8 -- 30
2020-08-26 12:00:00 29.2 4 Sudoeste 10 Sudoeste 0 932.7 -- 37
2020-08-26 11:00:00 26.5 4 Sudoeste 11 Sur 0 932.8 -- 47
2020-08-26 10:00:00 24 5 Sur 15 Sudeste 0 932.8 -- 56
2020-08-26 09:00:00 21.3 3 Sur 8 Sur 0 932.8 -- 68
2020-08-26 08:00:00 20.1 0 Calma 3 Noroeste 0 932.9 -- 63
2020-08-26 07:00:00 20.6 0 Calma 4 Norte 0 932.9 -- 58
2020-08-26 06:00:00 21.2 0 Calma 6 Norte 0 932.8 -- 52
2020-08-26 05:00:00 21.6 2 Nordeste 4 Nordeste 0 932.8 -- --
2020-08-26 04:00:00 23.1 0 Calma 6 Sur 0 932.8 -- --
2020-08-26 03:00:00 23.9 0 Calma 7 Este 0 932.8 -- 36
2020-08-26 02:00:00 25.1 0 Calma 5 Este 0 932.8 -- 30
2020-08-26 01:00:00 26.1 0 Calma 12 Sudeste 0 932.7 -- --
2020-08-26 00:00:00 26.8 0 Calma 10 Norte 0 932.8 -- 26
2020-08-25 23:00:00 28.7 0 Calma 3 Sudeste 0 932.8 -- --
2020-08-25 22:00:00 30.2 0 Calma 5 Sur 0 932.8 -- --
2020-08-25 21:00:00 32 0 Calma 9 Sur 0 932.8 -- --
2020-08-25 20:00:00 34.5 5 Sudoeste 13 Sur 0 932.8 -- 18
2020-08-25 19:00:00 35 0 Calma 15 Norte 0 932.8 -- 17
2020-08-25 18:00:00 35.5 5 Noroeste 20 Sudoeste 0 932.9 -- 16
2020-08-25 17:00:00 36.3 8 Sudoeste 23 Sudoeste 0 932.8 -- 16
2020-08-25 16:00:00 36 4 Noroeste 19 Sudoeste 0 932.8 -- 17
2020-08-25 15:00:00 34.3 2 Sur 17 Oeste 0 932.8 -- 20
2020-08-25 14:00:00 34.3 6 Sudoeste 16 Oeste 0 932.8 -- 23
2020-08-25 13:00:00 30.9 5 Sur 13 Sudoeste 0 932.7 -- 32
2020-08-25 12:00:00 27.7 6 Sur 15 Sur 0 932.6 -- --
2020-08-25 11:00:00 24.9 6 Sur 21 Sudeste 0 932.7 -- --
2020-08-25 10:00:00 22.8 6 Sur 19 Sur 0 932.7 -- 69
2020-08-25 09:00:00 21.1 7 Sudeste 21 Sur 0 932.6 -- 84
2020-08-25 08:00:00 20.8 7 Sudeste 19 Sudeste 0 932.8 -- 88
2020-08-25 07:00:00 21.1 4 Sudeste 18 Sur 0 932.8 -- --
2020-08-25 06:00:00 21.6 6 Sudeste 19 Sudeste 0 932.8 -- 83
2020-08-25 05:00:00 22.4 7 Sudeste 23 Sur 0 932.8 -- --
2020-08-25 04:00:00 23.2 2 Sudeste 13 Sur 0 932.8 -- 73
2020-08-25 03:00:00 24.1 2 Sudeste 14 Sur 0 932.8 -- 69
2020-08-25 02:00:00 25 0 Calma 14 Sudeste 0 932.8 -- 61
2020-08-25 01:00:00 25.7 4 Sudeste 15 Sudeste 0 932.8 -- 48
2020-08-25 00:00:00 26.4 3 Sudeste 11 Sur 0 932.8 -- 30
2020-08-24 23:00:00 27.4 0 Calma 4 Este 0 932.7 -- 29
2020-08-24 22:00:00 28.7 0 Calma 3 Oeste 0 932.7 -- 27
2020-08-24 21:00:00 30.5 0 Calma 7 Noroeste 0 932.8 -- 25
2020-08-24 20:00:00 33.2 0 Calma 13 Noroeste 0 932.8 -- 22
2020-08-24 19:00:00 32.5 0 Calma 13 Sudoeste 0 932.8 -- 22
2020-08-24 18:00:00 33.9 0 Calma 16 Oeste 0 932.8 -- --
2020-08-24 17:00:00 33.7 4 Oeste 30 Sudoeste 0 932.8 -- 21
2020-08-24 16:00:00 34.2 6 Sudoeste 16 Oeste 0 932.8 -- --
2020-08-24 15:00:00 31.9 7 Sudoeste 19 Oeste 0 932.8 -- --
2020-08-24 14:00:00 31.9 6 Sur 20 Sur 0 932.7 -- --
2020-08-24 13:00:00 30.1 5 Sur 19 Sudeste 0 932.8 -- 41
2020-08-24 12:00:00 27.8 5 Sudeste 20 Sudeste 0 932.7 -- 47
2020-08-24 11:00:00 25.5 3 Sudeste 24 Sudeste 0 932.8 -- 60
2020-08-24 10:00:00 23.7 7 Sudeste 22 Sur 0 932.8 -- 73
2020-08-24 09:00:00 22.2 6 Sudeste 20 Sudeste 0 932.8 -- 81
2020-08-24 08:00:00 21.7 4 Sudeste 24 Sudeste 0 932.7 -- 84
2020-08-24 07:00:00 22.1 5 Sudeste 22 Sudeste 0 932.8 -- 83
2020-08-24 06:00:00 22.4 7 Sudeste 23 Sur 0 932.8 -- 83
2020-08-24 05:00:00 23 5 Sudeste 17 Sudeste 0 932.8 -- 83
2020-08-24 04:00:00 23.4 3 Sudeste 23 Sur 0 932.8 -- 80
2020-08-24 03:00:00 24.1 6 Sudeste 28 Sudeste 0 932.8 -- 73
2020-08-24 02:00:00 24.8 6 Sudeste 23 Sur 0 932.8 -- 69
2020-08-24 01:00:00 25.7 7 Sudeste 23 Sudeste 0 932.8 -- 64
2020-08-24 00:00:00 26.5 0 Calma 10 Este 0 932.8 -- 42
2020-08-23 23:00:00 26.7 3 Nordeste 9 Este 0 932.8 -- --
2020-08-23 22:00:00 28.3 3 Nordeste 6 Nordeste 0 932.8 -- --
2020-08-23 21:00:00 30.6 4 Nordeste 11 Norte 0 932.8 -- --
2020-08-23 20:00:00 33.7 4 Norte 16 Noroeste 0 932.8 -- 25
2020-08-23 19:00:00 32.9 4 Noroeste 17 Noroeste 0 932.8 -- 26
2020-08-23 18:00:00 33.4 2 Sudoeste 23 Noroeste 0 932.8 -- 27
2020-08-23 17:00:00 33.4 5 Sudoeste 22 Noroeste 0 932.8 -- 28
2020-08-23 16:00:00 33.1 4 Noroeste 17 Sudeste 0 932.8 -- 31
2020-08-23 15:00:00 33.8 6 Sudoeste 18 Sudoeste 0 932.8 -- 33
2020-08-23 14:00:00 31 2 Este 10 Sudeste 0 932.8 -- 41
2020-08-23 13:00:00 29.7 2 Sur 13 Sudeste 0 932.8 -- 49
2020-08-23 12:00:00 27.6 2 Sur 13 Sur 0 932.7 -- 59
2020-08-23 11:00:00 24.3 0 Calma 8 Nordeste 0 932.9 -- 64
2020-08-23 10:00:00 21.8 2 Nordeste 10 Norte 0 932.8 -- 60
2020-08-23 09:00:00 19.5 3 Nordeste 6 Nordeste 0 932.8 -- 48
2020-08-23 08:00:00 18.6 0 Calma 4 Sudoeste 0 932.8 -- --
2020-08-23 07:00:00 18.4 3 Sudoeste 6 Oeste 0 932.8 -- --
2020-08-23 06:00:00 19.1 0 Calma 0 Calma 0 932.8 -- --
2020-08-23 05:00:00 19.3 0 Calma 4 Sur 0 932.9 -- 41
2020-08-23 04:00:00 20.1 0 Calma 6 Norte 0 932.8 -- --
2020-08-23 03:00:00 21.3 3 Norte 6 Noroeste 0 932.8 -- --
2020-08-23 02:00:00 22.6 0 Calma 5 Este 0 932.8 -- 33
2020-08-23 01:00:00 22.6 2 Nordeste 8 Norte 0 932.8 -- --
2020-08-23 00:00:00 24.2 3 Nordeste 8 Nordeste 0 932.8 -- 33
2020-08-22 23:00:00 26.3 2 Nordeste 6 Nordeste 0 932.8 -- 32
2020-08-22 22:00:00 27.9 3 Nordeste 10 Nordeste 0 932.8 -- 31
2020-08-22 21:00:00 30.6 4 Nordeste 19 Norte 0 932.8 -- 29
2020-08-22 20:00:00 33.3 6 Norte 16 Noroeste 0 932.8 -- 32
2020-08-22 19:00:00 32.9 3 Norte 16 Norte 0 932.8 -- 33
2020-08-22 18:00:00 33.4 2 Sudoeste 21 Norte 0 932.8 -- 34
2020-08-22 17:00:00 33.2 3 Oeste 18 Oeste 0 932.8 -- 36
2020-08-22 16:00:00 33.2 4 Sudoeste 17 Oeste 0 932.8 -- 37
2020-08-22 15:00:00 31.3 7 Sudoeste 21 Sudoeste 0 932.8 -- 40
2020-08-22 14:00:00 30.2 3 Noroeste 23 Noroeste 0 932.8 -- 42
2020-08-22 13:00:00 28.5 0 Calma 18 Sudoeste 0 932.8 -- 46
2020-08-22 12:00:00 26.4 3 Noroeste 12 Noroeste 0 932.8 -- 50
2020-08-22 11:00:00 25.1 3 Norte 12 Norte 0 932.8 -- 51
2020-08-22 10:00:00 22.9 2 Nordeste 11 Nordeste 0 932.8 -- 60
2020-08-22 09:00:00 21.2 3 Nordeste 8 Este 0 932.8 -- 68
2020-08-22 08:00:00 20.3 0 Calma 6 Este 0 932.8 -- 72
2020-08-22 07:00:00 20.8 0 Calma 3 Norte 0 932.8 -- 69
2020-08-22 06:00:00 21.4 0 Calma 5 Norte 0 932.8 -- 68
2020-08-22 05:00:00 22.2 0 Calma 6 Norte 0 932.8 -- 66
2020-08-22 04:00:00 22.5 2 Nordeste 6 Norte 0 932.8 -- 64
2020-08-22 03:00:00 23.3 0 Calma 6 Norte 0 932.8 -- 62
2020-08-22 02:00:00 24.4 0 Calma 6 Norte 0 932.8 -- 58
2020-08-22 01:00:00 25.2 2 Norte 5 Este 0 932.8 -- --
2020-08-22 00:00:00 26.1 5 Nordeste 12 Norte 0 932.8 -- 49